Time;durP1;ratioP1;P1;durP2;ratioP2;P2;SDS_P1;SDS_P2;PMS_P1;PMS_P2;Temp;Humidity;BMP_temperature;BMP_pressure;BME280_temperature;BME280_humidity;BME280_pressure;Samples;Min_cycle;Max_cycle;Signal;HPM_P1;HPM_P2
2021/08/10 00:01:53;;;;;;;3.78;2.38;;;17.40;75.20;;;16.40;72.16;96331.81;4950211;28;20030;-64
2021/08/10 00:04:19;;;;;;;4.10;2.35;;;17.40;75.30;;;16.36;72.73;96344.72;4968698;28;20125;-65
2021/08/10 00:06:45;;;;;;;4.35;2.53;;;17.40;75.30;;;16.38;71.84;96349.81;4951805;28;20089;-64
2021/08/10 00:09:11;;;;;;;3.47;2.40;;;17.40;75.40;;;16.38;nan;96355.94;4965481;28;20042;-64
2021/08/10 00:11:36;;;;;;;4.43;2.70;;;17.40;75.20;;;16.37;71.89;96359.63;4968150;28;20450;-64
2021/08/10 00:14:02;;;;;;;3.28;2.45;;;17.40;75.30;;;16.33;72.25;96354.97;4968621;28;20035;-65
2021/08/10 00:16:29;;;;;;;5.18;2.75;;;17.30;75.50;;;16.31;72.78;96354.38;4966732;28;20427;-64
2021/08/10 00:18:55;;;;;;;3.85;2.67;;;17.30;75.70;;;16.24;73.21;96343.81;4967376;28;20399;-64
2021/08/10 00:21:20;;;;;;;4.35;2.83;;;17.20;75.90;;;16.20;72.86;96345.28;4962703;28;20046;-64
2021/08/10 00:23:46;;;;;;;5.22;3.10;;;17.20;75.80;;;16.14;73.51;96354.13;4949683;28;20595;-64
2021/08/10 00:26:13;;;;;;;5.78;2.70;;;17.10;76.20;;;16.13;73.25;96352.50;4924305;28;20585;-64
2021/08/10 00:28:39;;;;;;;4.18;3.10;;;17.10;76.30;;;16.10;73.35;96355.59;4966961;28;20060;-64
2021/08/10 00:31:05;;;;;;;5.60;2.97;;;17.10;76.60;;;16.06;73.29;96351.72;4934448;28;20051;-64
2021/08/10 00:33:30;;;;;;;4.28;2.83;;;17.10;76.70;;;16.02;73.99;96356.66;4946256;28;20044;-64
2021/08/10 00:35:56;;;;;;;4.88;3.20;;;17.00;76.90;;;15.97;73.45;96347.72;4969864;28;20507;-64
2021/08/10 00:38:22;;;;;;;3.85;2.72;;;17.00;77.10;;;15.93;74.05;96342.03;4933589;28;20093;-64
2021/08/10 00:40:48;;;;;;;3.58;2.80;;;17.00;77.10;;;15.89;73.83;96354.91;4950997;28;20035;-64
2021/08/10 00:43:41;;;;;;;5.63;2.92;;;16.90;77.30;;;15.88;75.10;96342.69;4940001;28;20699;-64
2021/08/10 00:46:09;;;;;;;5.57;3.25;;;16.90;77.30;;;15.84;73.79;96352.13;4964364;28;20059;-64
2021/08/10 00:48:35;;;;;;;4.43;3.10;;;16.80;77.50;;;15.79;74.80;96346.63;4949273;28;20039;-64
2021/08/10 00:51:01;;;;;;;4.57;3.00;;;16.80;77.60;;;15.78;74.34;96352.94;4966455;28;20037;-64
2021/08/10 00:53:27;;;;;;;6.78;3.17;;;16.80;77.70;;;15.76;74.53;96347.06;4936319;28;20522;-65
2021/08/10 00:55:53;;;;;;;6.38;2.70;;;16.80;77.90;;;15.72;75.07;96345.88;4901373;28;20031;-64
2021/08/10 00:58:21;;;;;;;7.35;2.63;;;16.70;78.30;;;15.71;74.43;96349.53;4943634;28;20038;-64
2021/08/10 01:00:46;;;;;;;5.72;2.97;;;16.80;78.40;;;15.72;75.13;96351.16;4949540;28;20031;-63
2021/08/10 01:03:13;;;;;;;3.17;2.72;;;16.70;78.40;;;15.71;75.71;96349.53;4918703;29;20389;-64
2021/08/10 01:05:48;;;;;;;5.22;3.20;;;16.70;78.50;;;15.72;76.83;96340.56;4951752;28;20050;-64
2021/08/10 01:08:16;;;;;;;4.65;3.05;;;16.70;78.60;;;15.70;76.33;96337.31;4950643;28;20035;-64
2021/08/10 01:10:49;;;;;;;5.40;3.13;;;16.80;78.70;;;15.70;77.32;96334.66;4968161;28;20146;-64
2021/08/10 01:13:27;;;;;;;7.53;2.80;;;16.70;78.50;;;15.69;77.30;96335.69;4945288;28;20114;-64
2021/08/10 01:16:22;;;;;;;5.60;3.25;;;16.80;78.40;;;15.67;77.40;96332.44;4980002;28;20778;-64
2021/08/10 01:19:08;;;;;;;6.32;3.05;;;16.80;78.40;;;15.65;76.50;96339.81;4962414;28;20046;-64
2021/08/10 01:21:37;;;;;;;6.63;3.13;;;16.70;78.30;;;15.60;75.79;96336.97;4949519;28;20126;-65
2021/08/10 01:24:18;;;;;;;8.77;3.90;;;16.60;78.40;;;15.62;77.10;96342.88;4949879;28;20097;-64
2021/08/10 01:27:03;;;;;;;6.38;3.90;;;16.70;78.40;;;15.60;77.74;96343.06;4961410;28;20399;-64
2021/08/10 01:29:52;;;;;;;6.20;3.47;;;16.70;78.50;;;15.57;77.90;96348.78;4963112;28;20503;-64
2021/08/10 01:32:17;;;;;;;6.18;4.00;;;16.70;78.60;;;15.52;75.64;96342.50;4951909;28;20130;-64
2021/08/10 01:34:46;;;;;;;5.82;3.70;;;16.60;78.70;;;15.53;76.76;96336.16;4953741;28;20058;-64
2021/08/10 01:37:22;;;;;;;5.63;3.58;;;16.60;78.60;;;15.50;76.97;96337.41;4936292;28;20031;-64
2021/08/10 01:39:53;;;;;;;6.60;3.88;;;16.50;78.80;;;15.47;77.18;96331.72;4954446;28;20094;-64
2021/08/10 01:42:19;;;;;;;7.05;3.47;;;16.50;78.80;;;15.42;76.73;96339.50;4950192;28;20510;-64
2021/08/10 01:44:45;;;;;;;7.13;3.30;;;16.50;78.50;;;15.39;76.73;96331.97;4936698;28;20038;-64
2021/08/10 01:47:11;;;;;;;7.38;3.53;;;16.40;77.90;;;15.36;75.73;96335.03;4919729;28;20526;-64
2021/08/10 01:49:37;;;;;;;5.32;3.17;;;16.40;77.90;;;15.33;75.83;96337.09;4952836;28;20030;-64
2021/08/10 01:52:04;;;;;;;5.88;3.75;;;16.40;77.90;;;15.32;75.36;96322.22;4946287;28;20503;-64
2021/08/10 01:54:30;;;;;;;3.88;3.10;;;16.40;77.80;;;15.29;76.11;96330.59;4942950;28;20037;-64
2021/08/10 01:56:55;;;;;;;4.30;2.95;;;16.40;77.70;;;15.27;74.97;96324.69;4964417;28;20067;-64
2021/08/10 01:59:21;;;;;;;5.60;3.45;;;16.40;77.90;;;15.23;75.86;96323.50;4944864;28;20085;-64
2021/08/10 02:01:48;;;;;;;4.72;3.30;;;16.40;78.10;;;15.22;76.56;96318.41;4965029;28;20098;-64
2021/08/10 02:04:16;;;;;;;4.13;3.20;;;16.30;78.40;;;15.20;75.68;96326.59;4938634;28;20105;-64
2021/08/10 02:06:42;;;;;;;6.22;3.50;;;16.30;78.60;;;15.19;76.60;96319.66;4959982;28;20040;-64
2021/08/10 02:09:08;;;;;;;5.03;3.63;;;16.30;78.80;;;15.19;75.87;96322.31;4949165;28;20122;-64
2021/08/10 02:11:34;;;;;;;7.72;3.55;;;16.20;78.60;;;15.18;76.24;96323.34;4949179;28;20050;-64
2021/08/10 02:13:59;;;;;;;6.45;4.00;;;16.30;78.80;;;15.18;76.47;96322.53;4967517;28;20035;-64
2021/08/10 02:16:26;;;;;;;5.97;4.00;;;16.30;79.00;;;15.14;77.03;96316.81;4952625;28;20078;-64
2021/08/10 02:18:51;;;;;;;5.88;3.70;;;16.20;79.50;;;15.12;77.41;96323.34;4938486;28;20030;-64
2021/08/10 02:21:40;;;;;;;4.50;3.85;;;16.20;79.60;;;15.09;78.71;96319.28;4949994;28;20344;-64
2021/08/10 02:24:15;;;;;;;5.35;3.75;;;16.20;79.90;;;15.05;78.10;96312.78;4966685;28;20054;-64
2021/08/10 02:26:46;;;;;;;8.30;3.85;;;16.20;80.20;;;15.05;78.43;96318.09;4953170;28;20631;-64
2021/08/10 02:29:12;;;;;;;6.25;4.13;;;16.10;80.40;;;15.03;77.96;96314.84;4952003;28;20043;-64
2021/08/10 02:31:38;;;;;;;5.35;4.03;;;16.20;80.40;;;15.06;77.86;96322.38;4932710;28;20590;-64
2021/08/10 02:34:04;;;;;;;6.85;4.25;;;16.20;80.30;;;15.06;77.42;96311.78;4948416;28;20113;-66
2021/08/10 02:36:30;;;;;;;5.43;3.90;;;16.20;80.40;;;15.11;78.57;96311.94;4931525;28;20038;-65
2021/08/10 02:38:58;;;;;;;4.40;3.67;;;16.30;80.10;;;15.12;78.24;96307.44;4969829;28;20426;-65
2021/08/10 02:41:24;;;;;;;4.97;3.45;;;16.30;80.00;;;15.11;78.65;96306.63;4940911;28;20038;-65
2021/08/10 02:43:49;;;;;;;37.45;30.88;;;16.30;80.10;;;15.12;78.00;96308.25;4949557;28;20447;-64
2021/08/10 02:46:15;;;;;;;56.85;45.28;;;16.30;80.20;;;15.11;78.61;96311.94;4963060;28;20476;-64
2021/08/10 02:48:41;;;;;;;42.70;34.28;;;16.20;80.40;;;15.13;77.69;96298.47;4954617;28;20105;-65
2021/08/10 02:51:07;;;;;;;12.10;9.48;;;16.30;80.30;;;15.13;78.04;96301.13;4964837;28;20035;-65
2021/08/10 02:53:33;;;;;;;6.68;4.43;;;16.30;80.30;;;15.14;78.37;96300.91;4951798;28;20121;-64
2021/08/10 02:56:23;;;;;;;20.85;17.02;;;16.30;80.10;;;15.11;78.44;96300.53;4934138;29;20411;-64
2021/08/10 02:59:06;;;;;;;38.28;30.00;;;16.20;80.00;;;15.02;78.81;96289.38;4968584;28;20047;-64
2021/08/10 03:01:38;;;;;;;20.88;15.57;;;16.10;80.20;;;14.98;79.13;96291.66;4952495;28;20407;-64
2021/08/10 03:04:04;;;;;;;8.93;4.88;;;16.10;80.20;;;14.97;78.80;96289.22;4935645;28;20422;-65
2021/08/10 03:06:33;;;;;;;5.60;3.97;;;16.10;80.00;;;14.94;78.18;96289.63;4950735;28;20031;-64
2021/08/10 03:08:59;;;;;;;8.20;3.95;;;16.10;79.50;;;14.88;78.32;96285.16;4935183;28;20027;-64
2021/08/10 03:11:33;;;;;;;5.75;3.70;;;16.00;79.60;;;14.86;78.66;96282.72;4934574;28;20067;-64
2021/08/10 03:13:59;;;;;;;6.93;3.90;;;16.00;79.60;;;14.84;78.03;96283.97;4969617;28;20030;-64
2021/08/10 03:16:25;;;;;;;4.57;3.55;;;16.00;79.40;;;14.84;77.78;96291.91;4955649;28;20108;-64
2021/08/10 03:18:51;;;;;;;7.78;5.97;;;16.00;79.30;;;14.82;77.25;96291.31;4951473;28;20406;-64
2021/08/10 03:21:21;;;;;;;16.17;11.57;;;16.00;79.40;;;14.80;77.79;96293.34;4934738;28;20138;-64
2021/08/10 03:23:48;;;;;;;6.13;5.30;;;15.90;79.20;;;14.76;78.42;96292.16;4933562;28;20037;-64
2021/08/10 03:26:14;;;;;;;7.43;4.57;;;15.90;79.30;;;14.74;78.32;96292.38;4947992;28;20031;-64
2021/08/10 03:28:41;;;;;;;4.38;3.63;;;15.90;79.50;;;14.72;77.57;96297.06;4948624;28;20035;-64
2021/08/10 03:31:11;;;;;;;28.70;21.73;;;15.90;79.40;;;14.69;77.62;96289.50;4932993;28;20043;-65
2021/08/10 03:33:36;;;;;;;43.70;35.58;;;15.90;79.40;;;14.66;78.06;96284.63;4952778;28;20047;-65
2021/08/10 03:36:04;;;;;;;14.82;10.90;;;15.80;79.50;;;14.62;78.02;96286.91;4921075;28;20042;-65
2021/08/10 03:38:30;;;;;;;6.07;4.20;;;15.80;79.70;;;14.61;78.30;96287.91;4954831;28;20043;-64
2021/08/10 03:40:56;;;;;;;7.35;3.92;;;15.70;79.80;;;14.57;78.02;96284.06;4937272;29;20083;-64
2021/08/10 03:43:22;;;;;;;5.15;3.50;;;15.70;80.00;;;14.54;78.23;96279.19;4944085;28;20031;-64
2021/08/10 03:45:52;;;;;;;5.32;3.67;;;15.70;80.30;;;14.53;78.88;96288.16;4948359;28;20035;-65
2021/08/10 03:48:17;;;;;;;5.18;3.70;;;15.60;80.80;;;14.50;78.55;96278.00;4953147;28;20035;-64
2021/08/10 03:50:43;;;;;;;7.25;3.63;;;15.60;81.20;;;14.51;79.86;96287.56;4941068;28;20059;-65
2021/08/10 03:53:09;;;;;;;7.05;3.58;;;15.60;81.20;;;14.49;79.89;96286.97;4936965;28;20051;-66
2021/08/10 03:55:35;;;;;;;5.13;3.45;;;15.60;81.40;;;14.50;79.41;96283.28;4942373;28;20069;-65
2021/08/10 03:58:00;;;;;;;5.20;4.00;;;15.70;81.30;;;14.50;79.14;96283.28;4919565;29;20063;-66
2021/08/10 04:00:26;;;;;;;4.68;3.50;;;15.70;81.30;;;14.53;79.38;96296.09;4948134;28;20066;-64
2021/08/10 04:02:53;;;;;;;5.50;3.30;;;15.70;81.10;;;14.55;79.31;96302.00;4925042;29;20039;-64
2021/08/10 04:05:18;;;;;;;5.55;3.40;;;15.80;80.90;;;14.55;79.35;96290.59;4950073;28;20501;-64
2021/08/10 04:07:44;;;;;;;7.32;3.20;;;15.70;80.50;;;14.57;78.46;96293.84;4932117;28;20107;-64
2021/08/10 04:10:11;;;;;;;4.30;3.10;;;15.70;80.40;;;14.57;79.17;96302.59;4948995;28;20047;-64
2021/08/10 04:12:36;;;;;;;5.47;3.50;;;15.80;80.20;;;14.57;79.59;96294.66;4946963;28;20063;-64
2021/08/10 04:15:06;;;;;;;8.73;3.20;;;15.70;80.20;;;14.55;78.80;96296.72;4933744;29;20073;-64
2021/08/10 04:17:35;;;;;;;5.37;3.13;;;15.60;80.40;;;14.55;79.57;96295.91;4943966;28;20381;-65
2021/08/10 04:20:01;;;;;;;4.35;3.20;;;15.70;80.30;;;14.54;79.49;96294.28;4948560;28;20086;-64
2021/08/10 04:22:27;;;;;;;4.10;3.15;;;15.80;80.40;;;14.55;78.52;96294.06;4947051;28;20047;-64
2021/08/10 04:24:52;;;;;;;8.38;3.53;;;15.80;80.40;;;14.57;80.13;96288.56;4946454;28;20044;-64
2021/08/10 04:27:18;;;;;;;3.95;3.28;;;15.80;80.30;;;14.57;79.78;96289.38;4976404;28;20031;-64
2021/08/10 04:29:44;;;;;;;6.57;3.55;;;15.80;80.20;;;14.56;79.57;96293.03;4942842;28;20119;-64
2021/08/10 04:32:10;;;;;;;4.13;3.28;;;15.80;80.40;;;14.56;78.92;96293.03;4985103;28;20031;-64
2021/08/10 04:34:36;;;;;;;5.05;3.60;;;15.80;80.50;;;14.57;78.98;96289.38;4948231;28;20066;-64
2021/08/10 04:37:03;;;;;;;4.75;3.25;;;15.80;80.50;;;14.56;80.08;96293.03;4959520;28;20155;-63
2021/08/10 04:39:28;;;;;;;3.90;3.30;;;15.80;80.60;;;14.56;79.04;96293.03;4969276;28;20035;-64
2021/08/10 04:41:57;;;;;;;5.50;3.55;;;15.80;80.90;;;14.59;79.80;96292.63;4955179;28;20048;-64
2021/08/10 04:44:23;;;;;;;5.13;3.50;;;15.80;80.80;;;14.62;79.20;96292.19;4926616;28;20039;-64
2021/08/10 04:46:49;;;;;;;6.40;3.83;;;15.90;81.00;;;14.64;79.49;96279.56;4958034;28;20450;-64
2021/08/10 04:49:15;;;;;;;3.80;3.17;;;15.90;80.80;;;14.66;79.55;96272.22;4949887;28;20098;-64
2021/08/10 04:51:40;;;;;;;5.22;3.03;;;15.90;80.50;;;14.69;79.97;96281.56;4947416;28;20032;-66
2021/08/10 04:54:06;;;;;;;5.72;3.35;;;16.00;80.30;;;14.70;79.44;96285.84;4985731;28;20027;-66
2021/08/10 04:56:32;;;;;;;4.35;3.50;;;16.00;80.20;;;14.72;80.09;96290.94;4950267;28;20098;-66
2021/08/10 04:58:58;;;;;;;4.10;2.97;;;16.00;80.20;;;14.71;79.29;96284.84;4953239;28;20035;-67
2021/08/10 05:01:23;;;;;;;5.18;3.20;;;16.10;80.10;;;14.74;80.15;96283.63;4957703;28;20059;-65
2021/08/10 05:03:49;;;;;;;4.93;3.30;;;16.00;80.20;;;14.75;80.50;96279.94;4918174;28;20059;-66
2021/08/10 05:06:15;;;;;;;5.20;3.13;;;16.10;80.20;;;14.75;79.74;96290.53;4950739;28;20031;-66
2021/08/10 05:08:41;;;;;;;4.50;3.10;;;16.10;80.30;;;14.76;78.88;96285.03;4947810;28;20060;-64
2021/08/10 05:11:10;;;;;;;4.18;3.03;;;16.10;80.20;;;14.78;80.01;96290.09;4950981;28;20039;-66
2021/08/10 05:13:37;;;;;;;4.60;3.30;;;16.10;80.20;;;14.79;80.13;96279.31;4950636;28;20054;-64
2021/08/10 05:16:03;;;;;;;6.32;2.95;;;16.10;80.30;;;14.82;80.08;96276.22;4952028;28;20031;-64
2021/08/10 05:18:29;;;;;;;12.00;9.63;;;16.20;80.40;;;14.86;79.84;96279.25;4920341;29;20046;-64
2021/08/10 05:20:55;;;;;;;7.75;4.88;;;16.30;80.20;;;14.92;79.66;96270.47;4952201;28;20042;-63
2021/08/10 05:23:20;;;;;;;6.47;4.05;;;16.40;79.90;;;14.97;80.11;96273.31;4941001;28;20031;-63
2021/08/10 05:25:46;;;;;;;7.90;4.43;;;16.40;79.80;;;14.99;79.60;96277.38;4968730;28;20038;-63
2021/08/10 05:28:12;;;;;;;5.97;3.58;;;16.40;80.00;;;15.05;79.74;96281.00;4954511;28;20031;-63
2021/08/10 05:30:38;;;;;;;6.32;3.42;;;16.50;79.80;;;15.10;79.87;96286.47;4968185;28;20082;-64
2021/08/10 05:33:03;;;;;;;7.30;3.38;;;16.60;79.70;;;15.16;79.86;96296.25;4934591;28;20118;-65
2021/08/10 05:35:29;;;;;;;6.50;3.65;;;16.70;79.50;;;15.21;79.76;96280.50;4955264;28;20109;-64
2021/08/10 05:37:55;;;;;;;6.90;3.55;;;16.60;79.40;;;15.26;80.49;96285.97;4964496;28;20055;-64
2021/08/10 05:40:21;;;;;;;5.47;3.70;;;16.70;79.50;;;15.33;79.12;96285.91;4922962;29;20589;-64
2021/08/10 05:42:46;;;;;;;5.88;3.55;;;16.90;79.30;;;15.40;80.69;96284.06;4941089;28;20089;-64
2021/08/10 05:45:12;;;;;;;6.65;3.97;;;16.90;78.80;;;15.46;80.17;96279.72;4950247;28;20047;-64
2021/08/10 05:47:38;;;;;;;15.40;11.30;;;17.10;78.90;;;15.56;79.67;96280.06;4935407;28;20028;-68
2021/08/10 05:50:04;;;;;;;16.00;12.38;;;17.20;78.60;;;15.67;79.48;96278.59;4932094;28;20031;-66
2021/08/10 05:52:31;;;;;;;5.30;4.35;;;17.40;78.20;;;15.78;79.29;96276.03;4921292;29;20560;-64
2021/08/10 05:54:57;;;;;;;5.72;3.42;;;17.50;77.40;;;15.87;79.90;96274.75;4941379;29;20360;-65
2021/08/10 05:57:22;;;;;;;5.80;4.05;;;17.60;77.10;;;15.99;78.68;96277.47;4944044;28;20040;-66
2021/08/10 05:59:48;;;;;;;5.10;3.10;;;17.70;76.90;;;16.09;78.60;96269.84;4950539;28;20094;-66
2021/08/10 06:02:14;;;;;;;4.63;3.08;;;17.90;76.80;;;16.22;78.95;96274.19;4974054;28;20090;-66
2021/08/10 06:04:40;;;;;;;4.18;2.80;;;18.10;76.70;;;16.36;78.71;96281.00;4967296;28;20031;-65
2021/08/10 06:07:07;;;;;;;5.57;2.95;;;18.20;76.00;;;16.49;78.70;96277.38;4924064;29;20160;-64
2021/08/10 06:09:33;;;;;;;10.65;6.20;;;18.40;75.80;;;16.63;77.99;96288.69;4919745;28;20055;-67
2021/08/10 06:12:02;;;;;;;9.57;5.03;;;18.60;75.10;;;16.74;77.99;96277.31;4963002;28;20052;-63
2021/08/10 06:14:28;;;;;;;4.63;3.50;;;18.70;74.60;;;16.87;78.21;96289.66;4968883;28;20035;-64
2021/08/10 06:16:54;;;;;;;5.05;3.60;;;18.90;74.30;;;16.99;77.70;96278.03;4958991;28;20035;-63
2021/08/10 06:19:19;;;;;;;8.48;3.05;;;19.10;73.80;;;17.14;78.10;96280.28;4953953;28;20519;-64
2021/08/10 06:21:46;;;;;;;5.93;2.47;;;19.20;73.30;;;17.24;76.99;96290.41;4953344;28;20602;-66
2021/08/10 06:24:12;;;;;;;5.85;3.72;;;19.20;72.30;;;17.34;76.38;96280.00;4951350;28;20035;-65
2021/08/10 06:26:37;;;;;;;5.63;3.20;;;19.40;72.40;;;17.44;76.59;96286.41;4963978;28;20028;-66
2021/08/10 06:29:03;;;;;;;3.88;2.67;;;19.50;72.10;;;17.54;76.04;96285.84;4952552;28;20035;-64
2021/08/10 06:31:29;;;;;;;7.72;3.85;;;19.60;71.80;;;17.66;76.28;96292.00;4948712;28;20062;-64
2021/08/10 06:33:55;;;;;;;5.05;2.88;;;19.80;72.40;;;17.79;75.70;96284.88;4931966;28;20039;-66
2021/08/10 06:36:20;;;;;;;7.00;3.20;;;19.90;71.20;;;17.92;76.54;96293.47;4944078;28;20039;-64
2021/08/10 06:38:46;;;;;;;6.18;2.47;;;20.10;71.70;;;18.07;75.28;96290.34;4935072;29;20495;-65
2021/08/10 06:41:12;;;;;;;5.78;3.00;;;20.20;71.00;;;18.20;75.27;96290.13;4948372;28;20503;-65
2021/08/10 06:43:38;;;;;;;5.30;2.53;;;20.20;70.60;;;18.31;75.02;96294.59;4921345;28;20035;-64
2021/08/10 06:46:03;;;;;;;2.90;2.08;;;20.40;70.40;;;18.46;75.29;96298.66;4921057;28;20122;-64
2021/08/10 06:48:29;;;;;;;9.13;6.78;;;20.60;70.00;;;18.55;74.16;96289.25;4967281;28;20043;-64
2021/08/10 06:50:55;;;;;;;4.75;3.65;;;20.60;69.80;;;18.65;73.42;96286.84;4966803;28;20347;-64
2021/08/10 06:53:20;;;;;;;5.05;3.25;;;20.70;68.90;;;18.75;73.99;96284.38;4939112;28;20512;-67
2021/08/10 06:55:46;;;;;;;5.45;4.47;;;20.80;68.60;;;18.84;73.15;96280.31;4943771;28;20513;-66
2021/08/10 06:58:12;;;;;;;7.40;4.97;;;20.90;68.40;;;18.97;73.65;96295.22;4953904;28;20514;-65
2021/08/10 07:00:39;;;;;;;8.07;3.08;;;21.10;68.40;;;19.07;72.99;96289.28;4944526;28;20036;-64
2021/08/10 07:03:06;;;;;;;7.78;3.15;;;21.20;67.20;;;19.19;72.59;96282.03;4965909;28;20587;-65
2021/08/10 07:05:34;;;;;;;4.38;2.47;;;21.30;67.00;;;19.24;72.09;96277.63;4954211;28;20388;-66
2021/08/10 07:07:59;;;;;;;6.80;3.25;;;21.20;67.90;;;19.36;72.62;96277.56;4933591;29;20031;-64
2021/08/10 07:10:25;;;;;;;4.63;3.10;;;21.50;67.40;;;19.50;71.50;96286.88;4973773;28;20035;-67
2021/08/10 07:12:51;;;;;;;11.05;5.75;;;21.60;65.60;;;19.62;71.79;96291.38;4979860;28;20082;-65
2021/08/10 07:15:16;;;;;;;5.82;2.80;;;21.70;66.00;;;19.78;71.42;96290.59;4964972;28;20039;-64
2021/08/10 07:17:42;;;;;;;4.15;2.20;;;22.00;65.80;;;19.90;70.96;96283.28;4951321;28;20127;-64
2021/08/10 07:20:09;;;;;;;4.55;2.70;;;22.10;66.40;;;20.00;70.88;96288.81;4957224;28;20035;-65
2021/08/10 07:22:34;;;;;;;4.72;2.30;;;22.10;65.80;;;20.10;70.94;96291.63;4959890;28;20495;-65
2021/08/10 07:25:00;;;;;;;4.53;2.30;;;22.30;65.40;;;20.25;69.88;96284.91;4945696;28;20062;-64
2021/08/10 07:27:26;;;;;;;4.38;2.33;;;22.40;63.00;;;20.35;69.46;96282.34;4969254;28;20126;-64
2021/08/10 07:29:53;;;;;;;3.67;2.30;;;22.60;63.00;;;20.49;68.47;96283.66;4951917;28;20043;-70
2021/08/10 07:32:18;;;;;;;4.63;1.98;;;22.70;61.50;;;20.63;67.92;96276.91;4946061;28;20375;-67
2021/08/10 07:34:44;;;;;;;2.72;1.95;;;22.90;60.80;;;20.77;67.87;96282.69;4952878;28;20026;-70
2021/08/10 07:37:10;;;;;;;4.82;2.22;;;23.00;61.60;;;20.93;67.79;96286.34;4959523;28;20130;-72
2021/08/10 07:39:35;;;;;;;3.92;2.08;;;23.20;61.50;;;21.04;67.52;96282.72;4946501;28;20050;-74
2021/08/10 07:42:01;;;;;;;4.25;1.98;;;23.20;61.50;;;21.18;67.27;96283.97;4903320;28;20039;-72
2021/08/10 07:44:27;;;;;;;4.82;1.80;;;23.50;60.00;;;21.34;66.39;96280.44;4917391;28;20086;-72
2021/08/10 07:46:53;;;;;;;3.88;2.10;;;23.70;60.20;;;21.53;66.49;96274.72;4925991;28;20090;-72
2021/08/10 07:49:18;;;;;;;5.50;1.98;;;24.10;59.60;;;21.69;66.62;96279.13;4976671;28;20039;-71
2021/08/10 07:51:44;;;;;;;4.00;2.50;;;24.20;60.00;;;21.90;65.32;96280.91;4938837;28;20027;-68
2021/08/10 07:54:10;;;;;;;8.02;4.10;;;24.40;57.10;;;22.09;65.05;96288.59;4937021;28;20514;-70
2021/08/10 07:56:36;;;;;;;5.00;2.17;;;24.70;56.80;;;22.34;64.70;96278.03;4910680;28;20039;-71
2021/08/10 07:59:02;;;;;;;7.05;2.53;;;25.10;55.50;;;22.63;63.75;96273.09;4935693;28;20062;-69
2021/08/10 08:01:27;;;;;;;6.28;2.15;;;25.60;54.10;;;22.86;62.97;96279.97;4967300;28;20122;-65
2021/08/10 08:03:53;;;;;;;4.47;1.70;;;25.50;54.20;;;23.03;62.55;96277.88;4955487;28;20055;-66
2021/08/10 08:06:19;;;;;;;7.13;2.10;;;25.60;53.60;;;23.18;61.82;96275.25;4937899;28;20043;-72
2021/08/10 08:08:45;;;;;;;3.97;2.20;;;25.70;54.00;;;23.28;62.22;96279.81;4964775;28;20050;-72
2021/08/10 08:11:10;;;;;;;6.15;1.90;;;25.70;53.90;;;23.38;61.23;96281.72;4967795;28;20526;-73
2021/08/10 08:13:36;;;;;;;3.95;1.80;;;25.80;54.50;;;23.48;60.96;96276.38;4963436;28;20619;-71
2021/08/10 08:16:02;;;;;;;3.33;1.95;;;25.90;53.80;;;23.55;60.90;96278.81;4965230;28;20477;-67
2021/08/10 08:18:28;;;;;;;2.90;1.90;;;25.80;52.90;;;23.66;60.45;96269.72;4948044;28;20582;-67
2021/08/10 08:20:53;;;;;;;4.13;1.90;;;26.20;52.70;;;23.78;60.08;96257.66;4947154;28;20524;-68
2021/08/10 08:23:19;;;;;;;2.92;1.83;;;26.30;52.10;;;23.93;60.05;96264.06;4949513;28;20499;-68
2021/08/10 08:25:45;;;;;;;5.03;2.95;;;26.60;53.10;;;24.07;60.39;96271.31;4922716;29;20036;-68
2021/08/10 08:28:12;;;;;;;3.58;1.92;;;26.80;52.30;;;24.24;59.73;96271.06;4937133;29;20098;-72
2021/08/10 08:30:41;;;;;;;3.75;2.22;;;27.10;51.80;;;24.40;59.53;96263.78;4961567;28;20038;-72
2021/08/10 08:33:10;;;;;;;4.15;2.00;;;27.20;50.50;;;24.60;57.90;96262.91;4967637;28;20058;-68
2021/08/10 08:35:37;;;;;;;2.60;1.60;;;27.60;50.00;;;24.78;57.77;96265.00;4915592;28;20127;-70
2021/08/10 08:38:03;;;;;;;3.17;1.80;;;27.70;47.70;;;24.94;57.42;96268.44;4920614;28;20046;-69
2021/08/10 08:40:29;;;;;;;2.40;1.63;;;27.90;46.60;;;25.14;57.22;96268.41;4966959;28;20047;-69
2021/08/10 08:42:55;;;;;;;2.85;1.90;;;28.30;47.60;;;25.30;55.08;96274.47;4960516;28;20039;-69
2021/08/10 08:45:21;;;;;;;3.22;1.60;;;28.20;42.40;;;25.45;54.24;96269.00;4919379;28;20515;-71
2021/08/10 08:47:52;;;;;;;3.30;1.77;;;28.50;43.40;;;25.63;49.85;96268.34;4950409;28;20038;-70
2021/08/10 08:50:19;;;;;;;3.83;1.85;;;28.70;40.50;;;25.86;51.42;96263.38;4954967;28;20040;-72
2021/08/10 08:52:49;;;;;;;2.72;1.88;;;29.00;39.70;;;26.04;47.29;96269.97;4957757;28;20027;-71
2021/08/10 08:55:16;;;;;;;2.92;2.20;;;28.90;38.60;;;26.23;49.95;96262.75;4955232;28;20718;-70
2021/08/10 08:57:42;;;;;;;5.30;1.80;;;29.40;39.70;;;26.39;49.70;96258.03;4952652;28;20151;-69
2021/08/10 09:00:10;;;;;;;3.22;1.80;;;29.50;38.90;;;26.59;49.93;96254.34;4971393;28;20039;-67
2021/08/10 09:02:36;;;;;;;5.10;1.77;;;30.00;39.80;;;26.78;49.60;96253.28;4963274;28;20050;-69
2021/08/10 09:05:02;;;;;;;2.83;1.45;;;30.10;38.90;;;26.99;48.00;96264.69;4979929;28;20035;-73
2021/08/10 09:07:29;;;;;;;2.35;1.50;;;30.10;36.20;;;27.22;47.24;96263.03;4961839;28;20036;-72
2021/08/10 09:10:08;;;;;;;2.63;1.60;;;30.60;37.00;;;27.46;44.80;96263.78;4962703;28;20047;-70
2021/08/10 09:12:53;;;;;;;2.55;1.63;;;30.80;37.40;;;27.70;44.63;96257.50;4944333;28;20121;-70
2021/08/10 09:15:39;;;;;;;2.55;1.80;;;31.10;37.80;;;27.98;43.26;96248.38;4931837;28;20035;-69
2021/08/10 09:18:13;;;;;;;4.78;2.30;;;31.50;35.20;;;28.22;43.74;96250.94;4957888;28;20443;-69
2021/08/10 09:20:40;;;;;;;4.82;2.17;;;31.60;35.70;;;28.46;45.66;96256.22;4938986;28;20054;-69
2021/08/10 09:23:06;;;;;;;5.32;1.90;;;31.60;34.60;;;28.59;45.02;96250.03;4932021;28;20042;-67
2021/08/10 09:25:33;;;;;;;4.03;2.42;;;31.70;34.90;;;28.77;44.08;96252.94;4955491;28;20470;-68
2021/08/10 09:28:07;;;;;;;16.83;13.30;;;32.00;35.40;;;28.99;42.19;96255.78;4963156;28;20062;-68
2021/08/10 09:30:34;;;;;;;3.40;2.25;;;32.40;34.90;;;29.21;43.88;96247.72;4948888;28;20031;-70
2021/08/10 09:33:02;;;;;;;3.17;1.90;;;32.50;33.40;;;29.29;41.34;96243.47;4960797;28;20024;-69
2021/08/10 09:35:36;;;;;;;4.13;2.78;;;32.00;32.20;;;29.36;39.89;96233.00;4984123;28;20498;-70
2021/08/10 09:38:06;;;;;;;3.72;2.03;;;32.20;33.80;;;29.45;41.57;96236.66;4954172;28;20035;-69
2021/08/10 09:40:39;;;;;;;4.15;1.95;;;32.10;34.00;;;29.42;39.41;96236.41;4983265;28;20035;-70
2021/08/10 09:43:32;;;;;;;4.30;1.92;;;31.90;33.20;;;29.43;39.44;96238.03;4952083;28;20150;-70
2021/08/10 09:46:13;;;;;;;4.63;1.70;;;32.10;33.60;;;29.52;36.87;96231.59;4982886;28;20114;-69
2021/08/10 09:49:01;;;;;;;3.80;1.60;;;32.40;31.30;;;29.66;37.93;96242.41;4954034;28;20046;-68
2021/08/10 09:51:30;;;;;;;3.28;1.70;;;32.70;32.20;;;29.79;37.61;96240.72;4963617;28;20045;-69
2021/08/10 09:54:01;;;;;;;3.70;2.10;;;32.80;29.60;;;29.75;36.32;96235.13;4953585;28;20031;-69
2021/08/10 09:56:54;;;;;;;3.70;1.80;;;32.40;28.90;;;29.90;35.78;96235.88;4936216;28;20116;-69
2021/08/10 09:59:40;;;;;;;2.97;1.83;;;32.80;29.80;;;30.11;34.82;96231.56;4944870;28;20039;-69
2021/08/10 10:02:22;;;;;;;2.88;1.60;;;33.30;28.60;;;30.27;35.55;96224.59;4962006;28;20070;-69
2021/08/10 10:04:53;;;;;;;2.20;1.60;;;33.80;29.10;;;30.52;35.56;96225.03;4934367;28;20078;-67
2021/08/10 10:07:19;;;;;;;2.42;1.60;;;34.10;28.70;;;30.78;37.15;96218.63;4942824;28;20460;-66
2021/08/10 10:09:45;;;;;;;3.55;1.42;;;34.70;28.10;;;31.13;37.66;96226.03;4904338;28;20345;-70
2021/08/10 10:12:11;;;;;;;2.20;1.58;;;35.40;28.40;;;31.49;37.01;96215.72;4966568;28;20114;-73
2021/08/10 10:14:38;;;;;;;2.85;1.70;;;36.00;25.60;;;31.76;35.83;96211.88;4954484;28;20522;-73
2021/08/10 10:17:04;;;;;;;4.78;2.72;;;36.10;25.50;;;32.02;35.55;96208.31;4942483;28;20046;-72
2021/08/10 10:19:30;;;;;;;2.53;1.63;;;36.50;25.20;;;32.23;35.35;96209.22;4928950;28;20385;-72
2021/08/10 10:21:58;;;;;;;3.50;1.70;;;36.80;25.50;;;32.54;34.21;96214.41;4952197;28;20046;-72